Time;durP1;ratioP1;P1;durP2;ratioP2;P2;SDS_P1;SDS_P2;PMS_P1;PMS_P2;Temp;Humidity;BMP_temperature;BMP_pressure;BME280_temperature;BME280_humidity;BME280_pressure;Samples;Min_cycle;Max_cycle;Signal;HPM_P1;HPM_P2
2023/07/29 00:00:55;;;;;;;4.78;2.60;;;;;;;16.83;100.00;98541.94;5034929;28;20041;-37
2023/07/29 00:03:21;;;;;;;2.97;2.47;;;;;;;16.70;100.00;98528.91;5054068;28;20855;-36
2023/07/29 00:05:47;;;;;;;4.65;2.70;;;;;;;16.84;100.00;98546.22;5055806;28;20259;-36
2023/07/29 00:08:13;;;;;;;5.03;2.53;;;;;;;16.67;100.00;98520.44;5050717;28;20432;-37
2023/07/29 00:10:39;;;;;;;3.20;2.90;;;;;;;16.84;100.00;98543.59;5057086;28;20048;-36
2023/07/29 00:13:06;;;;;;;4.60;2.65;;;;;;;16.81;100.00;98533.31;5056783;28;20048;-41
2023/07/29 00:15:32;;;;;;;3.33;2.40;;;;;;;16.59;100.00;98497.41;5063775;28;20143;-37
2023/07/29 00:17:57;;;;;;;3.83;2.55;;;;;;;16.59;100.00;98504.47;5063527;28;20049;-37
2023/07/29 00:20:24;;;;;;;4.32;2.70;;;;;;;16.74;100.00;98535.63;5061523;28;20399;-37
2023/07/29 00:22:52;;;;;;;4.13;2.88;;;;;;;16.73;100.00;98538.34;5058437;28;20052;-36
2023/07/29 00:25:18;;;;;;;3.00;2.70;;;;;;;16.71;100.00;98541.09;5056130;28;20524;-37
2023/07/29 00:27:44;;;;;;;6.97;2.78;;;;;;;16.70;100.00;98544.66;5060820;28;20049;-37
2023/07/29 00:30:10;;;;;;;6.40;3.05;;;;;;;16.69;100.00;98537.75;5060104;28;20043;-38
2023/07/29 00:32:37;;;;;;;4.75;2.90;;;;;;;16.71;100.00;98545.50;5063435;28;20044;-36
2023/07/29 00:35:03;;;;;;;4.63;2.92;;;;;;;16.71;100.00;98538.47;5025763;28;20044;-36
2023/07/29 00:37:30;;;;;;;3.53;2.92;;;;;;;16.74;100.00;98546.13;5075842;28;20040;-36
2023/07/29 00:39:57;;;;;;;6.72;2.90;;;;;;;16.71;100.00;98533.22;5059044;28;20151;-36
2023/07/29 00:42:23;;;;;;;4.65;3.00;;;;;;;16.73;100.00;98540.97;5060204;28;20566;-36
2023/07/29 00:44:49;;;;;;;4.65;2.97;;;;;;;16.69;100.00;98534.28;5057032;28;20155;-37
2023/07/29 00:47:16;;;;;;;3.53;2.70;;;;;;;16.72;100.00;98549.78;5057458;28;20135;-37
2023/07/29 00:49:47;;;;;;;3.00;2.60;;;;;;;16.67;100.00;98542.28;5077650;28;20044;-37
2023/07/29 00:52:13;;;;;;;7.13;2.92;;;;;;;16.54;100.00;98510.03;5028910;28;20044;-37
2023/07/29 00:54:39;;;;;;;3.95;2.88;;;;;;;16.70;100.00;98534.16;5057888;28;20381;-37
2023/07/29 00:57:07;;;;;;;6.53;3.10;;;;;;;16.61;100.00;98515.66;5062122;28;20044;-37
2023/07/29 00:59:33;;;;;;;4.57;2.92;;;;;;;16.70;100.00;98533.31;5051556;28;20048;-36
2023/07/29 01:01:59;;;;;;;3.85;3.08;;;;;;;16.71;100.00;98529.75;5068690;28;20424;-36
2023/07/29 01:04:26;;;;;;;4.90;3.05;;;;;;;16.60;100.00;98511.38;5067885;28;20044;-36
2023/07/29 01:07:16;;;;;;;4.47;3.00;;;;;;;16.73;100.00;98525.22;5078348;28;20040;-36
2023/07/29 01:10:00;;;;;;;6.88;3.83;;;;;;;16.72;100.00;98537.50;5059585;28;20045;-36
2023/07/29 01:12:48;;;;;;;7.90;4.70;;;;;;;16.71;100.00;98525.34;5068494;28;20051;-37
2023/07/29 01:15:34;;;;;;;3.55;3.13;;;;;;;16.70;100.00;98526.28;5066425;28;20841;-37
2023/07/29 01:18:05;;;;;;;6.03;2.90;;;;;;;16.55;100.00;98490.72;5068922;28;20583;-36
2023/07/29 01:20:33;;;;;;;3.67;2.67;;;;;;;16.68;100.00;98506.38;5070169;28;20044;-36
2023/07/29 01:22:59;;;;;;;5.43;2.50;;;;;;;16.66;100.00;98492.53;5069387;28;20466;-36
2023/07/29 01:25:25;;;;;;;4.00;2.80;;;;;;;16.68;100.00;98490.63;5068923;28;20504;-37
2023/07/29 01:27:53;;;;;;;4.63;2.50;;;;;;;16.68;100.00;98506.38;5086041;28;20102;-37
2023/07/29 01:30:20;;;;;;;7.65;2.47;;;;;;;16.67;100.00;98502.06;5059818;28;20132;-37
2023/07/29 01:32:54;;;;;;;5.28;2.60;;;;;;;16.63;100.00;98498.03;5058755;28;20136;-37
2023/07/29 01:35:35;;;;;;;4.95;3.20;;;;;;;16.61;100.00;98495.50;5064776;28;20083;-37
2023/07/29 01:38:22;;;;;;;4.47;2.47;;;;;;;16.58;100.00;98487.88;5070390;28;20050;-36
2023/07/29 01:40:49;;;;;;;7.90;3.13;;;;;;;16.57;100.00;98486.19;5068717;28;20037;-37
2023/07/29 01:43:15;;;;;;;5.93;3.00;;;;;;;16.39;100.00;98453.50;5035652;28;20123;-36
2023/07/29 01:45:41;;;;;;;5.57;2.92;;;;;;;16.37;100.00;98450.19;5051714;28;20535;-37
2023/07/29 01:48:07;;;;;;;3.22;2.78;;;;;;;16.52;100.00;98481.31;5031712;28;20102;-37
2023/07/29 01:50:34;;;;;;;6.22;3.20;;;;;;;16.52;100.00;98477.84;5047228;28;20559;-37
2023/07/29 01:53:00;;;;;;;6.18;2.85;;;;;;;16.50;100.00;98469.25;5054852;28;20130;-37
2023/07/29 01:55:26;;;;;;;5.15;3.13;;;;;;;16.51;100.00;98463.88;5068572;28;20125;-37
2023/07/29 01:57:53;;;;;;;6.00;2.97;;;;;;;16.50;100.00;98464.81;5066168;28;20047;-37
2023/07/29 02:00:19;;;;;;;5.53;2.78;;;;;;;16.52;100.00;98465.56;5067557;28;20044;-36
2023/07/29 02:02:46;;;;;;;6.10;3.00;;;;;;;16.39;100.00;98450.88;5065762;28;20546;-37
2023/07/29 02:05:12;;;;;;;5.25;4.07;;;;;;;16.51;100.00;98478.78;5057241;28;20036;-37
2023/07/29 02:07:38;;;;;;;5.70;3.30;;;;;;;16.53;100.00;98480.34;5067801;28;20043;-37
2023/07/29 02:10:04;;;;;;;5.93;3.25;;;;;;;16.50;100.00;98474.50;5066520;28;20044;-37
2023/07/29 02:12:30;;;;;;;3.90;3.30;;;;;;;16.53;100.00;98480.34;5068550;28;20040;-37
2023/07/29 02:14:55;;;;;;;4.18;3.13;;;;;;;16.40;100.00;98465.66;5066825;28;20040;-37
2023/07/29 02:17:21;;;;;;;5.07;3.80;;;;;;;16.53;100.00;98492.63;5067456;28;20393;-37
2023/07/29 02:19:47;;;;;;;7.80;4.20;;;;;;;16.54;100.00;98502.16;5068021;28;20087;-37
2023/07/29 02:22:14;;;;;;;5.50;3.08;;;;;;;16.56;100.00;98504.66;5055827;28;20060;-37
2023/07/29 02:24:40;;;;;;;6.68;3.13;;;;;;;16.56;100.00;98507.28;5088663;28;20046;-37
2023/07/29 02:27:06;;;;;;;4.40;3.20;;;;;;;16.43;100.00;98499.56;5053186;28;20040;-37
2023/07/29 02:29:32;;;;;;;4.95;3.30;;;;;;;16.57;100.00;98527.34;5056041;28;20131;-36
2023/07/29 02:31:59;;;;;;;5.55;3.90;;;;;;;16.50;100.00;98511.22;5061221;28;20041;-36
2023/07/29 02:34:26;;;;;;;7.22;4.13;;;;;;;16.58;100.00;98526.38;5061544;28;20531;-36
2023/07/29 02:36:52;;;;;;;4.55;3.42;;;;;;;16.63;100.00;98521.66;5059161;28;20507;-36
2023/07/29 02:39:18;;;;;;;4.25;2.85;;;;;;;16.66;100.00;98526.66;5064954;28;20041;-36
2023/07/29 02:41:44;;;;;;;9.80;4.28;;;;;;;16.67;100.00;98530.94;5064827;28;20048;-36
2023/07/29 02:44:09;;;;;;;7.72;3.08;;;;;;;16.52;100.00;98510.16;5067180;28;20119;-37
2023/07/29 02:46:35;;;;;;;11.50;5.35;;;;;;;16.70;100.00;98528.91;5032434;28;20048;-37
2023/07/29 02:49:04;;;;;;;5.20;3.38;;;;;;;16.54;100.00;98492.50;5058056;28;20072;-37
2023/07/29 02:51:30;;;;;;;7.93;4.25;;;;;;;16.71;100.00;98512.22;5070258;28;20053;-37
2023/07/29 02:53:57;;;;;;;5.85;3.40;;;;;;;16.52;100.00;98475.22;5049656;28;20065;-36
2023/07/29 02:56:23;;;;;;;4.85;4.07;;;;;;;16.40;100.00;98455.16;5044223;28;20120;-37
2023/07/29 02:58:51;;;;;;;7.15;4.57;;;;;;;16.65;100.00;98496.94;5055977;28;20078;-37
2023/07/29 03:01:17;;;;;;;6.13;3.60;;;;;;;16.63;100.00;98495.41;5046843;28;20630;-37
2023/07/29 03:03:46;;;;;;;5.55;3.40;;;;;;;16.50;100.00;98472.69;5049936;28;20124;-37
2023/07/29 03:06:13;;;;;;;;;;;;;;;16.63;100.00;98492.78;5041649;28;20055;-37
2023/07/29 03:08:39;;;;;;;7.22;3.33;;;;;;;16.63;100.00;98503.28;5045704;28;19971;-37
2023/07/29 03:11:07;;;;;;;7.45;4.60;;;;;;;16.64;100.00;98500.53;5055976;28;20158;-37
2023/07/29 03:13:33;;;;;;;5.75;3.50;;;;;;;16.65;100.00;98499.56;5066293;28;20068;-37
2023/07/29 03:16:06;;;;;;;9.30;3.85;;;;;;;16.66;100.00;98498.63;5065513;28;20075;-37
2023/07/29 03:18:32;;;;;;;3.97;3.45;;;;;;;16.71;100.00;98498.25;5058074;28;20068;-37
2023/07/29 03:20:58;;;;;;;6.35;3.20;;;;;;;16.75;100.00;98510.16;5080676;28;20052;-37
2023/07/29 03:23:24;;;;;;;5.47;3.50;;;;;;;16.77;100.00;98503.88;5048351;28;20540;-37
2023/07/29 03:25:56;;;;;;;4.45;3.50;;;;;;;16.82;100.00;98493.84;5056461;28;20121;-37
2023/07/29 03:28:25;;;;;;;5.75;4.30;;;;;;;16.86;100.00;98490.00;5048444;28;20072;-38
2023/07/29 03:30:50;;;;;;;5.15;3.75;;;;;;;16.75;100.00;98460.31;5038309;28;20063;-37
2023/07/29 03:33:16;;;;;;;5.18;3.20;;;;;;;16.91;100.00;98481.75;5053421;28;20045;-37
2023/07/29 03:35:44;;;;;;;6.80;3.63;;;;;;;16.93;100.00;98477.25;5046873;28;20044;-36
2023/07/29 03:38:13;;;;;;;7.85;3.90;;;;;;;16.90;100.00;98467.81;5067096;28;20032;-42
2023/07/29 03:40:40;;;;;;;4.60;3.22;;;;;;;16.83;100.00;98453.50;5076174;28;20049;-37
2023/07/29 03:43:06;;;;;;;4.38;3.45;;;;;;;16.94;100.00;98471.88;5065925;28;20068;-37
2023/07/29 03:45:33;;;;;;;3.55;3.05;;;;;;;16.96;100.00;98469.09;5067800;28;20673;-37
2023/07/29 03:47:59;;;;;;;6.57;3.65;;;;;;;16.96;100.00;98466.47;5066096;28;20194;-37
2023/07/29 03:50:25;;;;;;;4.80;3.53;;;;;;;16.99;100.00;98468.03;5067301;28;20138;-37
2023/07/29 03:52:51;;;;;;;6.95;3.90;;;;;;;17.01;100.00;98463.50;5065418;28;20042;-37
2023/07/29 03:55:17;;;;;;;6.68;3.20;;;;;;;17.04;100.00;98466.72;5053456;28;20037;-37
2023/07/29 03:57:43;;;;;;;6.43;3.80;;;;;;;16.90;100.00;98441.53;5057789;28;20420;-37
2023/07/29 04:00:10;;;;;;;4.78;3.28;;;;;;;16.91;100.00;98432.72;5066410;28;20037;-37
2023/07/29 04:02:42;;;;;;;4.90;3.65;;;;;;;16.93;100.00;98422.94;5067029;28;20044;-37
2023/07/29 04:05:09;;;;;;;4.18;3.40;;;;;;;17.08;100.00;98441.88;5069882;28;20070;-36
2023/07/29 04:07:35;;;;;;;6.10;3.60;;;;;;;17.09;100.00;98440.91;5068873;28;20048;-37
2023/07/29 04:10:02;;;;;;;5.88;4.47;;;;;;;17.11;100.00;98440.81;5057934;28;20123;-39
2023/07/29 04:12:30;;;;;;;4.90;3.40;;;;;;;17.12;100.00;98432.78;5065773;28;20578;-37
2023/07/29 04:14:56;;;;;;;8.50;3.88;;;;;;;17.12;100.00;98431.94;5050981;28;20064;-37
2023/07/29 04:17:22;;;;;;;6.53;3.45;;;;;;;16.96;100.00;98410.53;5051051;28;20044;-37
2023/07/29 04:19:48;;;;;;;5.32;4.22;;;;;;;17.15;100.00;98439.59;5049371;28;20060;-37
2023/07/29 04:22:15;;;;;;;4.28;3.47;;;;;;;17.14;100.00;98446.63;5050852;28;20043;-37
2023/07/29 04:24:41;;;;;;;8.38;4.00;;;;;;;17.13;100.00;98447.59;5067909;28;20032;-37
2023/07/29 04:27:08;;;;;;;5.03;3.80;;;;;;;17.03;100.00;98423.03;5071800;28;20040;-37
2023/07/29 04:29:35;;;;;;;5.07;3.95;;;;;;;16.94;100.00;98414.13;5069164;28;20131;-37
2023/07/29 04:32:02;;;;;;;6.97;3.80;;;;;;;17.19;100.00;98449.72;5067297;28;20064;-37
2023/07/29 04:34:28;;;;;;;8.05;3.83;;;;;;;17.20;100.00;98451.41;5051681;28;20037;-37
2023/07/29 04:36:54;;;;;;;8.05;4.10;;;;;;;17.20;100.00;98443.53;5069314;28;20044;-37
2023/07/29 04:39:20;;;;;;;8.23;4.13;;;;;;;17.19;100.00;98443.63;5069414;28;20044;-36
2023/07/29 04:41:46;;;;;;;5.95;3.75;;;;;;;17.20;100.00;98440.06;5086100;28;20054;-36
2023/07/29 04:44:14;;;;;;;5.75;3.30;;;;;;;17.24;100.00;98444.94;5069063;28;20068;-37
2023/07/29 04:46:40;;;;;;;6.10;4.13;;;;;;;17.24;100.00;98447.56;5050297;28;20048;-36
2023/07/29 04:49:06;;;;;;;5.10;3.70;;;;;;;17.22;100.00;98433.69;5068063;28;20059;-37
2023/07/29 04:51:32;;;;;;;5.60;3.63;;;;;;;17.22;100.00;98431.06;5068227;28;20413;-36
2023/07/29 04:53:58;;;;;;;4.80;3.50;;;;;;;17.23;100.00;98443.25;5069632;28;20071;-36
2023/07/29 04:56:26;;;;;;;5.10;3.20;;;;;;;17.06;100.00;98411.47;5058379;28;20052;-36
2023/07/29 04:58:55;;;;;;;6.82;3.80;;;;;;;17.25;100.00;98437.88;5069577;28;20138;-38
2023/07/29 05:01:21;;;;;;;4.47;3.30;;;;;;;17.25;100.00;98438.72;5069002;28;20040;-37
2023/07/29 05:03:47;;;;;;;12.02;5.95;;;;;;;17.26;100.00;98437.78;5048693;28;20162;-37
2023/07/29 05:06:13;;;;;;;6.68;3.10;;;;;;;17.28;100.00;98429.75;5066678;28;20419;-36
2023/07/29 05:08:40;;;;;;;7.30;3.72;;;;;;;17.28;100.00;98433.22;5068570;28;20135;-37
2023/07/29 05:11:09;;;;;;;6.70;3.60;;;;;;;17.29;100.00;98439.31;5067044;28;20040;-38
2023/07/29 05:13:36;;;;;;;5.53;4.40;;;;;;;17.28;100.00;98429.75;5066587;28;20053;-37
2023/07/29 05:16:02;;;;;;;4.78;3.63;;;;;;;17.27;100.00;98423.66;5068176;28;20752;-37
2023/07/29 05:18:28;;;;;;;7.53;3.50;;;;;;;17.27;100.00;98426.28;5069548;28;20068;-37
2023/07/29 05:20:54;;;;;;;5.53;3.53;;;;;;;17.27;100.00;98426.28;5068240;28;20086;-36
2023/07/29 05:23:21;;;;;;;4.25;3.67;;;;;;;17.29;100.00;98415.66;5067423;28;20103;-37
2023/07/29 05:25:46;;;;;;;4.78;3.80;;;;;;;17.33;100.00;98411.81;5052517;28;20091;-36
2023/07/29 05:28:12;;;;;;;6.13;3.65;;;;;;;17.41;100.00;98409.41;5068974;28;20044;-36
2023/07/29 05:30:40;;;;;;;7.03;3.63;;;;;;;17.46;100.00;98403.78;5069752;28;20084;-37
2023/07/29 05:33:09;;;;;;;4.45;3.10;;;;;;;17.47;100.00;98408.91;5056297;28;20508;-37
2023/07/29 05:35:35;;;;;;;6.35;3.30;;;;;;;17.52;100.00;98400.63;5063155;28;20094;-37
2023/07/29 05:38:03;;;;;;;7.97;3.38;;;;;;;17.57;100.00;98406.34;5068505;28;20040;-37
2023/07/29 05:40:30;;;;;;;5.00;3.30;;;;;;;17.63;100.00;98405.88;5068917;28;20090;-36
2023/07/29 05:42:56;;;;;;;8.02;3.80;;;;;;;17.68;100.00;98391.38;5078597;28;20819;-37
2023/07/29 05:45:22;;;;;;;4.68;3.42;;;;;;;17.75;100.00;98407.44;5053249;28;20419;-37
2023/07/29 05:47:50;;;;;;;5.97;3.63;;;;;;;17.79;100.00;98399.16;5068991;28;20040;-36
2023/07/29 05:50:17;;;;;;;5.88;4.05;;;;;;;17.86;100.00;98398.66;5052030;28;20052;-36
2023/07/29 05:52:43;;;;;;;4.70;3.78;;;;;;;17.94;100.00;98402.31;5065886;28;20043;-36
2023/07/29 05:55:09;;;;;;;5.10;3.53;;;;;;;17.82;100.00;98382.31;5068760;28;20048;-36
2023/07/29 05:57:35;;;;;;;5.10;3.15;;;;;;;17.99;100.00;98409.81;5051242;28;20044;-37
2023/07/29 06:00:01;;;;;;;5.82;3.25;;;;;;;18.00;100.00;98414.13;5068577;28;20081;-36
2023/07/29 06:02:30;;;;;;;;;;;;;;;17.99;99.91;98417.72;5068480;28;20040;-37
2023/07/29 06:04:56;;;;;;;7.35;3.40;;;;;;;17.95;99.75;98418.94;5068422;28;20418;-35
2023/07/29 06:07:21;;;;;;;7.45;3.10;;;;;;;17.97;99.85;98420.47;5083070;28;20036;-36
2023/07/29 06:09:48;;;;;;;4.90;2.88;;;;;;;18.00;99.40;98424.66;5047453;28;20047;-37
2023/07/29 06:12:16;;;;;;;5.00;3.00;;;;;;;18.02;98.89;98441.09;5058322;28;20512;-37
2023/07/29 06:14:42;;;;;;;4.65;3.30;;;;;;;18.03;98.93;98438.34;5062528;28;20055;-36
2023/07/29 06:17:11;;;;;;;6.20;3.20;;;;;;;17.89;98.64;98408.94;5060100;28;20040;-36
2023/07/29 06:19:37;;;;;;;6.22;3.20;;;;;;;18.10;98.33;98438.69;5069578;28;20127;-37
2023/07/29 06:22:05;;;;;;;5.47;3.15;;;;;;;18.16;98.04;98449.50;5069133;28;20048;-36
2023/07/29 06:24:32;;;;;;;4.68;3.10;;;;;;;18.21;97.57;98454.38;5042546;28;20040;-37
2023/07/29 06:26:58;;;;;;;5.05;3.28;;;;;;;18.25;97.38;98450.53;5068190;28;20515;-38
2023/07/29 06:29:24;;;;;;;6.32;2.70;;;;;;;18.29;96.86;98459.81;5062739;28;20063;-37
2023/07/29 06:31:51;;;;;;;4.50;3.03;;;;;;;18.30;96.15;98460.66;5062055;28;20052;-37
2023/07/29 06:34:17;;;;;;;4.22;2.20;;;;;;;18.30;95.69;98460.66;5063700;28;20068;-36
2023/07/29 06:36:44;;;;;;;5.75;2.70;;;;;;;18.30;95.61;98465.91;5080583;28;20105;-36
2023/07/29 06:39:10;;;;;;;4.50;2.72;;;;;;;18.29;95.26;98462.44;5032627;28;20041;-36
2023/07/29 06:41:36;;;;;;;3.45;2.72;;;;;;;18.32;95.38;98475.34;5067329;28;20049;-37
2023/07/29 06:44:06;;;;;;;3.55;2.53;;;;;;;18.08;95.32;98424.81;5048499;28;20048;-37
2023/07/29 06:46:32;;;;;;;5.45;2.60;;;;;;;18.33;95.54;98474.38;5065766;28;20036;-37
2023/07/29 06:48:57;;;;;;;6.15;3.17;;;;;;;18.30;95.65;98474.66;5066639;28;20067;-37
2023/07/29 06:51:24;;;;;;;6.13;3.40;;;;;;;18.30;95.80;98471.19;5057961;28;20597;-36
2023/07/29 06:53:50;;;;;;;4.75;3.03;;;;;;;18.29;96.05;98474.78;5060861;28;20037;-36
2023/07/29 06:56:16;;;;;;;4.82;3.63;;;;;;;18.29;96.13;98475.59;5060601;28;20436;-37
2023/07/29 06:58:42;;;;;;;5.97;3.38;;;;;;;18.31;96.50;98476.31;5060435;28;20040;-37
2023/07/29 07:01:09;;;;;;;5.30;4.35;;;;;;;18.31;96.75;98478.13;5061198;28;20555;-37
2023/07/29 07:03:34;;;;;;;9.45;4.00;;;;;;;18.24;97.15;98472.53;5063394;28;20071;-37
2023/07/29 07:06:01;;;;;;;6.03;4.03;;;;;;;18.25;97.48;98478.63;5059852;28;20041;-37
2023/07/29 07:08:27;;;;;;;7.28;4.20;;;;;;;18.24;97.72;98490.13;5065694;28;20051;-36
2023/07/29 07:10:53;;;;;;;4.90;3.45;;;;;;;18.20;98.01;98489.56;5066888;28;20048;-36
2023/07/29 07:13:19;;;;;;;6.63;4.18;;;;;;;18.19;97.98;98498.41;5063724;28;20056;-36
2023/07/29 07:15:45;;;;;;;6.55;3.70;;;;;;;18.16;98.24;98499.47;5064077;28;20036;-37
2023/07/29 07:18:12;;;;;;;7.50;3.88;;;;;;;18.13;98.27;98504.16;5045806;28;20075;-36
2023/07/29 07:20:37;;;;;;;5.82;3.95;;;;;;;18.08;98.69;98486.16;5056765;28;20086;-36
2023/07/29 07:23:05;;;;;;;5.70;3.60;;;;;;;18.05;98.66;98491.69;5059462;28;20040;-37
2023/07/29 07:25:31;;;;;;;4.82;3.97;;;;;;;18.03;98.93;98493.59;5057595;28;20168;-37
2023/07/29 07:27:57;;;;;;;4.88;3.38;;;;;;;17.77;99.24;98453.69;5060895;28;20488;-36
2023/07/29 07:30:23;;;;;;;4.18;3.60;;;;;;;18.09;99.02;98487.81;5065939;28;20139;-37
2023/07/29 07:32:50;;;;;;;6.78;4.18;;;;;;;18.08;98.69;98486.16;5060489;28;20091;-36
2023/07/29 07:35:16;;;;;;;4.72;3.80;;;;;;;18.11;98.40;98487.66;5062034;28;20095;-37
2023/07/29 07:37:43;;;;;;;6.68;3.20;;;;;;;18.12;98.39;98487.56;5065984;28;20543;-36
2023/07/29 07:40:09;;;;;;;10.65;4.10;;;;;;;18.11;98.19;98488.50;5064921;28;20040;-38
2023/07/29 07:42:35;;;;;;;7.78;3.50;;;;;;;18.12;97.99;98487.56;5060981;28;20055;-38
2023/07/29 07:45:04;;;;;;;5.28;3.70;;;;;;;18.11;97.83;98487.66;5061349;28;20060;-37
2023/07/29 07:47:29;;;;;;;5.40;3.83;;;;;;;18.08;98.03;98480.88;5065823;28;20471;-37
2023/07/29 07:49:55;;;;;;;6.63;4.00;;;;;;;18.19;98.11;98490.50;5060780;28;20139;-36
2023/07/29 07:52:21;;;;;;;7.10;3.70;;;;;;;18.20;98.07;98476.41;5059194;28;20048;-38
2023/07/29 07:54:55;;;;;;;4.75;3.58;;;;;;;18.26;98.31;98482.94;5063510;28;20104;-36
2023/07/29 07:57:22;;;;;;;5.45;3.85;;;;;;;18.26;98.44;98488.19;5064258;28;20122;-37
2023/07/29 07:59:47;;;;;;;5.10;3.65;;;;;;;18.30;98.58;98487.81;5057066;28;20036;-36
2023/07/29 08:02:13;;;;;;;8.07;4.20;;;;;;;18.40;98.75;98491.31;5056984;28;20051;-37
2023/07/29 08:04:39;;;;;;;7.70;3.53;;;;;;;18.33;98.77;98461.22;5059137;28;20503;-36
2023/07/29 08:07:05;;;;;;;6.50;4.10;;;;;;;18.56;99.10;98496.97;5074310;28;20048;-36
2023/07/29 08:09:31;;;;;;;6.57;3.38;;;;;;;18.60;99.53;98503.63;5059299;28;20041;-36
2023/07/29 08:11:57;;;;;;;7.07;4.45;;;;;;;18.57;100.00;98498.66;5057603;28;20470;-36
2023/07/29 08:14:24;;;;;;;6.75;3.60;;;;;;;18.53;100.00;98497.19;5059066;28;20101;-37
2023/07/29 08:16:49;;;;;;;6.50;3.90;;;;;;;18.38;100.00;98480.06;5078933;28;20040;-36
2023/07/29 08:19:15;;;;;;;8.35;4.50;;;;;;;18.57;100.00;98498.66;5062967;28;20076;-37
2023/07/29 08:21:41;;;;;;;7.25;4.32;;;;;;;18.61;100.00;98497.41;5059054;28;20060;-37
2023/07/29 08:24:07;;;;;;;5.43;4.13;;;;;;;18.56;100.00;98494.34;5062544;28;20044;-37
2023/07/29 08:26:33;;;;;;;9.25;5.10;;;;;;;18.35;100.00;98461.94;5046410;28;20510;-37
2023/07/29 08:29:00;;;;;;;5.97;4.25;;;;;;;18.53;100.00;98493.72;5065247;28;20037;-36
2023/07/29 08:31:26;;;;;;;7.22;4.05;;;;;;;18.39;100.00;98473.84;5080524;28;20073;-38
2023/07/29 08:33:52;;;;;;;6.22;4.70;;;;;;;18.46;100.00;98485.53;5059530;28;20044;-37
2023/07/29 08:36:18;;;;;;;6.43;5.18;;;;;;;18.66;100.00;98502.28;5050243;28;20124;-37
2023/07/29 08:38:44;;;;;;;6.82;4.50;;;;;;;18.72;100.00;98503.53;5060623;28;20127;-37
2023/07/29 08:41:25;;;;;;;6.10;4.15;;;;;;;18.73;100.00;98513.97;5062956;28;20028;-37
2023/07/29 08:44:12;;;;;;;7.63;4.30;;;;;;;18.80;100.00;98503.72;5060052;28;20040;-37
2023/07/29 08:46:39;;;;;;;8.07;4.25;;;;;;;18.64;100.00;98467.34;5063307;28;20680;-36
2023/07/29 08:49:05;;;;;;;9.10;4.25;;;;;;;18.89;99.54;98498.47;5065874;28;20428;-38
2023/07/29 08:51:32;;;;;;;6.50;4.05;;;;;;;18.93;98.84;98499.88;5067782;28;20052;-37
2023/07/29 08:53:59;;;;;;;6.00;4.50;;;;;;;18.84;98.29;98469.06;5050956;28;20053;-37
2023/07/29 08:56:27;;;;;;;6.15;4.25;;;;;;;19.09;97.95;98496.75;5070441;28;20048;-37
2023/07/29 08:58:53;;;;;;;;;;;;;;;19.23;97.05;98500.78;5078203;28;20050;-37
2023/07/29 09:01:19;;;;;;;6.60;4.30;;;;;;;19.27;96.60;98505.66;5050906;28;20400;-38
2023/07/29 09:03:45;;;;;;;8.23;4.05;;;;;;;19.28;95.73;98502.03;5063265;28;20044;-37
2023/07/29 09:06:11;;;;;;;5.57;4.40;;;;;;;19.27;95.38;98502.16;5064130;28;20043;-37
2023/07/29 09:08:38;;;;;;;6.85;4.95;;;;;;;19.19;94.86;98496.75;5044003;28;20128;-38
2023/07/29 09:11:04;;;;;;;5.63;4.50;;;;;;;19.19;94.60;98492.31;5065459;28;20033;-36
2023/07/29 09:13:30;;;;;;;7.43;4.22;;;;;;;19.18;94.20;98498.56;5067310;28;20036;-37
2023/07/29 09:15:59;;;;;;;6.57;4.75;;;;;;;19.11;94.02;98501.84;5069312;28;20433;-37
2023/07/29 09:18:26;;;;;;;5.43;4.43;;;;;;;19.01;93.82;98491.31;5063792;28;20468;-37
2023/07/29 09:20:53;;;;;;;6.85;3.75;;;;;;;18.91;93.54;98498.34;5064565;28;20111;-37
2023/07/29 09:23:19;;;;;;;6.97;4.20;;;;;;;18.69;93.12;98480.09;5065963;28;20037;-38
2023/07/29 09:25:47;;;;;;;7.88;4.57;;;;;;;18.74;93.00;98498.97;5065277;28;20043;-36
2023/07/29 09:28:15;;;;;;;5.22;4.63;;;;;;;18.57;92.89;98464.44;5067613;28;20036;-36
2023/07/29 09:30:45;;;;;;;6.07;3.97;;;;;;;18.85;92.73;98493.59;5066101;28;20098;-37
2023/07/29 09:33:11;;;;;;;6.05;4.30;;;;;;;18.94;92.32;98506.84;5063952;28;20319;-37
2023/07/29 09:35:39;;;;;;;5.68;4.20;;;;;;;19.07;91.67;98511.00;5046018;28;20592;-37
2023/07/29 09:38:06;;;;;;;6.30;4.28;;;;;;;19.20;91.13;98517.72;5067852;28;20072;-37
2023/07/29 09:40:39;;;;;;;5.72;4.00;;;;;;;19.31;90.39;98514.13;5058527;28;20032;-37
2023/07/29 09:43:06;;;;;;;4.65;3.70;;;;;;;19.38;89.97;98512.59;5059686;28;20511;-38
2023/07/29 09:45:35;;;;;;;7.93;4.57;;;;;;;19.38;89.51;98521.34;5072905;28;20637;-37
2023/07/29 09:48:02;;;;;;;7.10;4.90;;;;;;;19.34;89.29;98517.31;5066053;28;20044;-37
2023/07/29 09:50:30;;;;;;;5.32;4.45;;;;;;;19.37;89.03;98519.66;5061024;28;20056;-37
2023/07/29 09:53:00;;;;;;;6.78;4.22;;;;;;;19.45;88.54;98509.31;5065611;28;20068;-38
2023/07/29 09:55:27;;;;;;;6.13;4.03;;;;;;;19.53;87.91;98520.97;5068351;28;20036;-36
2023/07/29 09:58:06;;;;;;;7.25;4.28;;;;;;;19.55;87.83;98508.50;5068492;28;20460;-36
2023/07/29 10:00:32;;;;;;;9.45;4.55;;;;;;;19.58;87.77;98505.56;5067892;28;20064;-37
2023/07/29 10:02:59;;;;;;;5.20;3.92;;;;;;;19.62;87.62;98501.72;5062440;28;20033;-38
2023/07/29 10:05:29;;;;;;;5.90;4.30;;;;;;;19.40;87.57;98471.97;5063309;28;20505;-36
2023/07/29 10:07:58;;;;;;;7.30;4.03;;;;;;;19.67;87.62;98504.75;5066740;28;20041;-36
2023/07/29 10:10:23;;;;;;;6.10;3.97;;;;;;;19.48;87.26;98466.03;5048441;28;20496;-37
2023/07/29 10:12:50;;;;;;;6.32;4.05;;;;;;;19.80;86.77;98506.13;5068090;28;20093;-35
2023/07/29 10:15:16;;;;;;;4.53;3.88;;;;;;;19.88;86.04;98502.81;5065328;28;20055;-36
2023/07/29 10:17:41;;;;;;;5.28;3.70;;;;;;;19.86;85.38;98488.94;5064561;28;20032;-36
2023/07/29 10:20:09;;;;;;;4.05;3.35;;;;;;;19.90;84.75;98503.50;5067035;28;20131;-36
2023/07/29 10:22:43;;;;;;;6.68;3.65;;;;;;;20.02;83.99;98520.84;5065159;28;20040;-36
2023/07/29 10:25:16;;;;;;;5.72;4.30;;;;;;;20.00;84.35;98521.94;5060443;28;20077;-36
2023/07/29 10:28:03;;;;;;;8.13;4.38;;;;;;;19.96;84.63;98521.41;5059032;28;20425;-35
2023/07/29 10:30:29;;;;;;;6.63;4.63;;;;;;;19.98;85.11;98519.47;5050497;28;20524;-35
2023/07/29 10:32:56;;;;;;;13.70;4.95;;;;;;;20.01;85.27;98521.81;5059707;28;20041;-35
2023/07/29 10:35:22;;;;;;;6.30;4.72;;;;;;;19.96;85.23;98520.56;5059444;28;20147;-36
2023/07/29 10:37:50;;;;;;;6.68;4.32;;;;;;;19.96;85.46;98525.84;5082814;28;20587;-35
2023/07/29 10:40:17;;;;;;;7.35;4.43;;;;;;;19.89;85.21;98522.94;5029853;28;20508;-35
2023/07/29 10:43:03;;;;;;;6.07;4.20;;;;;;;19.89;85.91;98521.13;5064264;28;20052;-35
2023/07/29 10:45:41;;;;;;;7.95;3.63;;;;;;;19.78;85.79;98528.38;5066578;28;20032;-34
2023/07/29 10:48:36;;;;;;;9.73;3.70;;;;;;;19.57;85.67;98509.19;5067541;28;20040;-38
2023/07/29 10:51:26;;;;;;;7.95;3.60;;;;;;;19.55;85.70;98530.41;5065758;28;20150;-33
2023/07/29 10:53:57;;;;;;;7.13;3.90;;;;;;;19.54;85.92;98527.91;5066854;28;20044;-38
2023/07/29 10:56:34;;;;;;;6.38;3.97;;;;;;;19.51;86.09;98521.13;5064548;28;20459;-41
2023/07/29 10:59:12;;;;;;;5.45;4.00;;;;;;;19.61;86.65;98521.13;5068774;28;20129;-35
2023/07/29 11:01:39;;;;;;;6.10;4.22;;;;;;;19.66;86.43;98511.84;5066632;28;20032;-41
2023/07/29 11:04:24;;;;;;;6.95;3.67;;;;;;;19.70;86.53;98509.75;5017607;28;20129;-40
2023/07/29 11:07:07;;;;;;;5.60;4.30;;;;;;;19.75;86.34;98505.72;5069663;28;20060;-40
2023/07/29 11:09:48;;;;;;;4.35;3.55;;;;;;;19.81;86.26;98513.09;5068025;28;20041;-41
2023/07/29 11:12:40;;;;;;;6.60;3.50;;;;;;;19.85;85.17;98511.00;5068932;28;20036;-40
2023/07/29 11:15:21;;;;;;;6.95;3.25;;;;;;;19.78;84.54;98500.16;5069116;28;20051;-40
2023/07/29 11:17:59;;;;;;;5.45;2.88;;;;;;;19.92;83.50;98511.28;5069085;28;20044;-37
2023/07/29 11:20:27;;;;;;;4.93;3.00;;;;;;;19.96;82.88;98515.28;5066368;28;20048;-38
2023/07/29 11:22:54;;;;;;;6.57;3.38;;;;;;;20.00;82.36;98509.59;5064362;28;20076;-40
2023/07/29 11:25:25;;;;;;;5.28;3.28;;;;;;;20.09;82.19;98518.50;5068032;28;20033;-39
2023/07/29 11:27:52;;;;;;;3.35;3.05;;;;;;;20.20;82.03;98513.06;5067878;28;20075;-39
2023/07/29 11:30:22;;;;;;;4.00;3.08;;;;;;;20.20;81.26;98497.22;5068860;28;20056;-38
2023/07/29 11:32:49;;;;;;;6.40;3.40;;;;;;;20.41;81.13;98516.34;5044831;28;20139;-40